Time;durP1;ratioP1;P1;durP2;ratioP2;P2;SDS_P1;SDS_P2;PMS_P1;PMS_P2;Temp;Humidity;BMP_temperature;BMP_pressure;BME280_temperature;BME280_humidity;BME280_pressure;Samples;Min_cycle;Max_cycle;Signal;HPM_P1;HPM_P2
2022/09/17 00:02:54;;;;;;;2.87;1.47;;;9.10;99.90;;;;;;8363044;28;20205;-68
2022/09/17 00:06:55;;;;;;;2.10;1.17;;;9.10;99.90;;;;;;8369544;28;20243;-68
2022/09/17 00:10:56;;;;;;;2.30;1.40;;;9.10;99.90;;;;;;8370414;28;20178;-67
2022/09/17 00:14:57;;;;;;;2.00;1.13;;;9.30;13.20;;;;;;8362623;28;20206;-68
2022/09/17 00:18:59;;;;;;;3.00;1.40;;;9.30;1.00;;;;;;8365664;28;20684;-68
2022/09/17 00:22:59;;;;;;;2.00;1.00;;;9.30;1.00;;;;;;8363946;28;20233;-68
2022/09/17 00:27:00;;;;;;;3.07;1.10;;;9.40;99.90;;;;;;8365444;28;20185;-68
2022/09/17 00:31:07;;;;;;;3.20;1.07;;;9.40;99.90;;;;;;8361624;28;20186;-68
2022/09/17 00:35:08;;;;;;;2.30;1.00;;;9.50;99.90;;;;;;8364856;28;20219;-67
2022/09/17 00:39:11;;;;;;;6.57;1.30;;;9.50;99.90;;;;;;8363625;28;20190;-68
2022/09/17 00:43:11;;;;;;;2.43;1.30;;;9.50;99.90;;;;;;8358782;28;20236;-67
2022/09/17 00:47:32;;;;;;;3.33;1.60;;;9.50;99.90;;;;;;8362147;28;20181;-68
2022/09/17 00:51:39;;;;;;;4.60;1.17;;;9.50;99.90;;;;;;8363805;28;20184;-68
2022/09/17 00:55:46;;;;;;;2.30;1.00;;;9.50;82.20;;;;;;8365104;28;20181;-67
2022/09/17 00:59:47;;;;;;;1.93;1.13;;;9.70;20.70;;;;;;8362339;28;20264;-68
2022/09/17 01:03:48;;;;;;;2.50;1.10;;;9.90;1.00;;;;;;8359757;28;20279;-68
2022/09/17 01:08:01;;;;;;;1.30;0.80;;;10.00;1.00;;;;;;8361658;28;20180;-69
2022/09/17 01:12:08;;;;;;;1.87;1.07;;;10.20;1.00;;;;;;8371174;28;20227;-68
2022/09/17 01:16:20;;;;;;;1.93;0.70;;;10.30;1.00;;;;;;8365269;28;20181;-68
2022/09/17 01:20:39;;;;;;;2.03;0.90;;;10.40;99.90;;;;;;8363624;28;20199;-67
2022/09/17 01:25:14;;;;;;;4.37;1.37;;;10.50;99.90;;;;;;8360167;28;20202;-68
2022/09/17 01:29:40;;;;;;;1.83;0.80;;;10.60;1.00;;;;;;8361135;28;20196;-68
2022/09/17 01:33:52;;;;;;;1.83;1.00;;;10.60;1.00;;;;;;8359980;28;20193;-68
2022/09/17 01:38:03;;;;;;;3.23;0.80;;;10.60;1.00;;;;;;8361528;28;20196;-68
2022/09/17 01:42:14;;;;;;;4.03;1.10;;;10.50;1.00;;;;;;8365457;28;20248;-68
2022/09/17 01:46:31;;;;;;;1.67;0.90;;;10.50;1.00;;;;;;8361462;28;20192;-67
2022/09/17 01:50:54;;;;;;;2.40;0.90;;;10.50;1.00;;;;;;8361651;28;20214;-68
2022/09/17 01:55:00;;;;;;;4.07;1.10;;;10.60;1.00;;;;;;8366123;28;20194;-68
2022/09/17 01:59:08;;;;;;;3.40;1.10;;;10.60;1.00;;;;;;8361938;28;20188;-68
2022/09/17 02:03:37;;;;;;;3.13;1.10;;;10.60;1.00;;;;;;8362062;28;20266;-68
2022/09/17 02:07:44;;;;;;;2.03;0.97;;;10.60;1.00;;;;;;8367427;28;20191;-67
2022/09/17 02:11:51;;;;;;;2.30;1.03;;;10.60;1.00;;;;;;8366102;28;20221;-68
2022/09/17 02:16:01;;;;;;;1.97;0.77;;;10.60;1.00;;;;;;8367317;28;20214;-67
2022/09/17 02:20:04;;;;;;;2.70;0.93;;;10.60;1.00;;;;;;8366625;28;20263;-68
2022/09/17 02:24:25;;;;;;;2.23;0.90;;;10.60;1.00;;;;;;8365789;28;20211;-68
2022/09/17 02:28:29;;;;;;;3.33;1.10;;;10.60;1.00;;;;;;8382068;28;20187;-68
2022/09/17 02:32:29;;;;;;;3.53;1.20;;;10.70;1.00;;;;;;8370503;28;20191;-68
2022/09/17 02:36:31;;;;;;;4.43;1.37;;;10.70;1.00;;;;;;8368524;28;20184;-67
2022/09/17 02:40:38;;;;;;;2.10;0.90;;;10.70;1.00;;;;;;8364592;28;20189;-68
2022/09/17 02:44:49;;;;;;;4.33;0.97;;;10.80;1.00;;;;;;8370011;28;20222;-67
2022/09/17 02:49:19;;;;;;;4.50;0.97;;;10.80;1.00;;;;;;8368063;28;20200;-68
2022/09/17 02:53:33;;;;;;;2.87;1.20;;;10.70;67.10;;;;;;8369609;28;20208;-68
2022/09/17 02:57:49;;;;;;;3.27;1.30;;;10.60;99.90;;;;;;8368228;28;20214;-68
2022/09/17 03:02:01;;;;;;;2.53;1.27;;;10.50;1.00;;;;;;8365166;28;20219;-68
2022/09/17 03:06:02;;;;;;;5.87;1.63;;;10.40;21.90;;;;;;8371426;28;20179;-68
2022/09/17 03:10:04;;;;;;;3.77;1.23;;;10.30;99.90;;;;;;8364409;28;20219;-68
2022/09/17 03:14:05;;;;;;;2.37;1.13;;;10.30;99.90;;;;;;8366516;28;20360;-68
2022/09/17 03:18:05;;;;;;;2.97;2.07;;;10.30;99.90;;;;;;8363124;28;20228;-69
2022/09/17 03:22:06;;;;;;;4.13;1.50;;;10.30;99.90;;;;;;8369325;28;20217;-70
2022/09/17 03:26:07;;;;;;;4.67;1.40;;;10.30;99.90;;;;;;8368713;28;20282;-68
2022/09/17 03:30:08;;;;;;;4.73;1.60;;;10.30;96.80;;;;;;8364569;28;20536;-68
2022/09/17 03:34:09;;;;;;;2.43;1.20;;;10.30;70.90;;;;;;8365724;28;20337;-68
2022/09/17 03:38:10;;;;;;;5.17;1.67;;;10.30;1.00;;;;;;8366919;28;20192;-68
2022/09/17 03:42:11;;;;;;;3.50;1.43;;;10.30;1.00;;;;;;8367177;28;20203;-67
2022/09/17 03:46:12;;;;;;;3.50;1.57;;;10.40;1.00;;;;;;8369233;28;20180;-68
2022/09/17 03:50:13;;;;;;;3.30;1.90;;;10.30;1.00;;;;;;8368449;28;20181;-68
2022/09/17 03:54:14;;;;;;;6.97;1.87;;;10.30;1.00;;;;;;8364942;28;20187;-68
2022/09/17 03:58:15;;;;;;;2.47;1.80;;;10.30;1.00;;;;;;8365521;28;20559;-69
2022/09/17 04:02:15;;;;;;;5.60;1.67;;;10.40;1.00;;;;;;8371083;28;20296;-67
2022/09/17 04:06:16;;;;;;;4.50;1.57;;;10.40;1.00;;;;;;8359850;28;20232;-73
2022/09/17 04:10:18;;;;;;;3.83;1.60;;;10.40;1.00;;;;;;8367858;28;20292;-68
2022/09/17 04:14:18;;;;;;;5.57;1.57;;;10.40;99.90;;;;;;8362959;28;20245;-68
2022/09/17 04:18:19;;;;;;;2.83;1.27;;;10.40;99.90;;;;;;8363626;28;20302;-68
2022/09/17 04:22:20;;;;;;;5.00;1.30;;;10.40;99.90;;;;;;8365488;28;20213;-68
2022/09/17 04:26:21;;;;;;;2.83;1.50;;;10.50;99.90;;;;;;8362989;28;20218;-68
2022/09/17 04:30:22;;;;;;;2.83;1.60;;;10.50;99.90;;;;;;8367838;28;20187;-68
2022/09/17 04:34:23;;;;;;;4.17;1.33;;;10.50;99.90;;;;;;8363059;28;20186;-69
2022/09/17 04:38:23;;;;;;;3.83;1.47;;;10.40;1.00;;;;;;8363399;28;20261;-68
2022/09/17 04:42:24;;;;;;;7.37;1.60;;;10.40;1.00;;;;;;8364512;28;20244;-68
2022/09/17 04:46:28;;;;;;;5.73;1.50;;;10.40;1.00;;;;;;8362380;28;20178;-68
2022/09/17 04:50:29;;;;;;;2.73;1.40;;;10.50;1.00;;;;;;8373793;28;20207;-68
2022/09/17 04:54:30;;;;;;;3.23;1.60;;;10.50;99.90;;;;;;8365501;28;20278;-68
2022/09/17 04:58:31;;;;;;;3.40;1.37;;;10.50;99.90;;;;;;8365161;28;20214;-68
2022/09/17 05:02:32;;;;;;;2.70;1.20;;;10.50;99.90;;;;;;8358245;28;20222;-69
2022/09/17 05:06:33;;;;;;;3.83;1.47;;;10.50;99.90;;;;;;8365274;28;20191;-68
2022/09/17 05:10:34;;;;;;;3.10;1.30;;;10.60;99.90;;;;;;8362800;28;20194;-69
2022/09/17 05:14:35;;;;;;;4.07;1.50;;;10.60;99.90;;;;;;8361086;28;20637;-69
2022/09/17 05:18:35;;;;;;;2.80;1.57;;;10.60;99.90;;;;;;8360821;28;20203;-68
2022/09/17 05:22:44;;;;;;;4.17;1.50;;;10.60;99.90;;;;;;8361042;28;20314;-68
2022/09/17 05:26:45;;;;;;;4.20;1.40;;;10.60;99.90;;;;;;8369799;28;20210;-70
2022/09/17 05:30:46;;;;;;;3.83;1.37;;;10.60;99.90;;;;;;8363667;28;20180;-68
2022/09/17 05:34:46;;;;;;;3.93;1.80;;;10.70;99.90;;;;;;8369862;28;20279;-68
2022/09/17 05:38:49;;;;;;;6.83;1.43;;;10.70;99.90;;;;;;8369076;28;20261;-68
2022/09/17 05:42:50;;;;;;;3.70;1.50;;;10.80;99.90;;;;;;8377793;28;20201;-68
2022/09/17 05:46:52;;;;;;;4.83;1.77;;;10.80;99.90;;;;;;8369868;28;20196;-68
2022/09/17 05:50:54;;;;;;;5.87;2.10;;;10.80;99.90;;;;;;8370598;28;20506;-68
2022/09/17 05:54:55;;;;;;;2.20;1.47;;;10.90;99.90;;;;;;8368344;28;20227;-67
2022/09/17 05:58:57;;;;;;;4.27;1.60;;;11.00;99.90;;;;;;8370488;28;20262;-68
2022/09/17 06:02:58;;;;;;;4.90;1.87;;;11.10;99.90;;;;;;8373650;28;20489;-71
2022/09/17 06:06:58;;;;;;;3.90;1.67;;;11.20;20.30;;;;;;8364536;28;20181;-68
2022/09/17 06:11:04;;;;;;;6.03;1.63;;;11.30;5.50;;;;;;8366834;28;20230;-68
2022/09/17 06:15:05;;;;;;;3.40;1.30;;;11.30;1.00;;;;;;8365017;28;20212;-68
2022/09/17 06:19:06;;;;;;;4.27;1.50;;;11.50;35.30;;;;;;8367796;28;20211;-68
2022/09/17 06:23:10;;;;;;;2.43;1.83;;;11.50;1.00;;;;;;8371277;28;20218;-68
2022/09/17 06:27:11;;;;;;;3.80;1.50;;;11.70;1.00;;;;;;8378315;28;20184;-67
2022/09/17 06:31:12;;;;;;;2.50;1.70;;;11.90;1.00;;;;;;8369191;28;20206;-66
2022/09/17 06:35:13;;;;;;;6.53;1.80;;;12.00;1.00;;;;;;8367157;28;20196;-68
2022/09/17 06:39:14;;;;;;;4.60;2.10;;;12.10;1.00;;;;;;8367971;28;20186;-67
2022/09/17 06:43:14;;;;;;;2.87;1.60;;;12.10;1.00;;;;;;8367505;28;20213;-68
2022/09/17 06:47:15;;;;;;;2.10;1.40;;;12.20;1.00;;;;;;8367350;28;20209;-67
2022/09/17 06:51:16;;;;;;;2.97;1.40;;;12.20;1.00;;;;;;8364591;28;20189;-68
2022/09/17 06:55:17;;;;;;;3.17;1.40;;;12.10;1.00;;;;;;8372849;28;20185;-66
2022/09/17 06:59:18;;;;;;;2.37;1.40;;;12.00;1.00;;;;;;8369143;28;20284;-68
2022/09/17 07:03:19;;;;;;;4.13;1.63;;;12.00;1.00;;;;;;8364424;28;20269;-67
2022/09/17 07:07:20;;;;;;;2.90;1.77;;;11.90;1.00;;;;;;8369415;28;20185;-68
2022/09/17 07:11:21;;;;;;;4.10;1.63;;;11.90;1.00;;;;;;8369426;28;20230;-67
2022/09/17 07:15:22;;;;;;;5.57;1.87;;;11.90;1.00;;;;;;8368760;28;20177;-67
2022/09/17 07:19:23;;;;;;;2.70;1.57;;;11.80;1.00;;;;;;8363659;28;20596;-66
2022/09/17 07:23:26;;;;;;;3.87;1.90;;;11.80;87.60;;;;;;8367107;28;20506;-67
2022/09/17 07:27:28;;;;;;;5.37;2.20;;;11.80;38.40;;;;;;8368604;28;20193;-68
2022/09/17 07:31:31;;;;;;;3.03;2.13;;;11.80;49.90;;;;;;8364877;28;20175;-68
2022/09/17 07:35:32;;;;;;;3.10;1.90;;;11.90;53.20;;;;;;8363260;28;20185;-68
2022/09/17 07:39:33;;;;;;;3.03;2.00;;;11.90;72.60;;;;;;8362691;28;20261;-68
2022/09/17 07:43:35;;;;;;;3.00;2.33;;;11.90;99.90;;;;;;8365850;28;20212;-68
2022/09/17 07:47:40;;;;;;;8.00;2.37;;;12.00;95.60;;;;;;8368326;28;20220;-68
2022/09/17 07:51:40;;;;;;;3.97;2.40;;;11.90;99.90;;;;;;8371437;28;20209;-68
2022/09/17 07:55:42;;;;;;;2.70;2.20;;;12.00;99.90;;;;;;8370621;28;20214;-68
2022/09/17 07:59:43;;;;;;;6.03;2.10;;;12.10;19.50;;;;;;8363344;28;20189;-68
2022/09/17 08:03:49;;;;;;;4.20;2.00;;;12.10;5.30;;;;;;8362827;28;20280;-69
2022/09/17 08:07:54;;;;;;;3.67;2.17;;;12.30;22.40;;;;;;8369047;28;20483;-67
2022/09/17 08:11:55;;;;;;;4.87;2.33;;;12.50;1.00;;;;;;8369582;28;20209;-67
2022/09/17 08:16:04;;;;;;;3.57;2.00;;;12.60;1.00;;;;;;8360960;28;20335;-68
2022/09/17 08:20:05;;;;;;;5.77;1.77;;;12.60;1.00;;;;;;8365123;28;20307;-69
2022/09/17 08:24:06;;;;;;;2.50;1.90;;;12.80;1.00;;;;;;8365339;28;20209;-68
2022/09/17 08:28:07;;;;;;;2.30;1.70;;;12.70;1.00;;;;;;8362431;28;20211;-68
2022/09/17 08:32:08;;;;;;;2.20;1.57;;;12.80;1.00;;;;;;8364519;28;20194;-67
2022/09/17 08:36:12;;;;;;;2.67;1.47;;;12.90;1.00;;;;;;8365423;28;20185;-68
2022/09/17 08:40:19;;;;;;;2.77;1.57;;;12.90;1.00;;;;;;8372111;28;20190;-68
2022/09/17 08:44:25;;;;;;;4.20;1.53;;;12.80;1.00;;;;;;8362745;28;20302;-68
2022/09/17 08:48:46;;;;;;;1.63;1.30;;;12.60;1.00;;;;;;8364962;28;20205;-68
2022/09/17 08:53:06;;;;;;;1.50;1.40;;;12.40;1.00;;;;;;8367089;28;20195;-67
2022/09/17 08:57:20;;;;;;;3.67;1.47;;;12.30;1.00;;;;;;8372082;28;20217;-67
2022/09/17 09:01:33;;;;;;;2.23;1.27;;;12.40;1.00;;;;;;8366315;28;20181;-68
2022/09/17 09:05:44;;;;;;;2.10;1.13;;;12.60;1.00;;;;;;8362019;28;20185;-68
2022/09/17 09:09:57;;;;;;;2.77;1.07;;;12.80;1.00;;;;;;8360663;28;20656;-68
2022/09/17 09:14:21;;;;;;;3.43;1.20;;;13.00;1.00;;;;;;8367690;28;20259;-68
2022/09/17 09:18:28;;;;;;;3.37;1.10;;;13.00;99.90;;;;;;8370483;28;20232;-67
2022/09/17 09:22:46;;;;;;;1.77;0.90;;;13.00;1.00;;;;;;8367358;28;20296;-68
2022/09/17 09:27:00;;;;;;;2.73;1.10;;;13.30;99.90;;;;;;8369154;28;20186;-68
2022/09/17 09:31:01;;;;;;;1.77;1.00;;;13.70;99.90;;;;;;8376012;28;20186;-68
2022/09/17 09:35:15;;;;;;;1.77;0.90;;;14.00;99.90;;;;;;8369671;28;20197;-68
2022/09/17 09:39:34;;;;;;;3.57;1.30;;;14.10;99.90;;;;;;8370653;28;20209;-69
2022/09/17 09:43:50;;;;;;;1.57;1.00;;;14.40;99.90;;;;;;8368767;28;20488;-68
2022/09/17 09:48:26;;;;;;;1.80;0.90;;;14.60;99.90;;;;;;8385257;28;20182;-68
2022/09/17 09:52:52;;;;;;;2.83;1.00;;;14.70;99.90;;;;;;8373545;28;20186;-67
2022/09/17 09:57:19;;;;;;;1.53;0.97;;;14.70;99.90;;;;;;8367980;28;20185;-67
2022/09/17 10:01:20;;;;;;;2.00;0.83;;;14.60;99.90;;;;;;8366429;28;20627;-70
2022/09/17 10:05:21;;;;;;;3.40;0.93;;;14.30;99.90;;;;;;8368718;28;20628;-67
2022/09/17 10:09:22;;;;;;;2.60;1.00;;;13.90;1.00;;;;;;8372110;28;20185;-68
2022/09/17 10:13:24;;;;;;;2.23;0.57;;;14.40;34.70;;;;;;8365817;28;20209;-69
2022/09/17 10:17:26;;;;;;;1.17;0.87;;;14.80;99.90;;;;;;8367517;28;20208;-68
2022/09/17 10:21:36;;;;;;;1.50;0.50;;;14.90;99.90;;;;;;8375502;28;20318;-68
2022/09/17 10:25:42;;;;;;;1.73;0.70;;;15.20;99.90;;;;;;8368490;28;20178;-68
2022/09/17 10:29:49;;;;;;;1.63;0.60;;;15.30;99.90;;;;;;8366294;28;20181;-68
2022/09/17 10:34:03;;;;;;;1.93;0.50;;;15.40;99.90;;;;;;8367205;28;20225;-68
2022/09/17 10:38:04;;;;;;;3.97;0.70;;;15.30;99.90;;;;;;8367710;28;20248;-69
2022/09/17 10:42:16;;;;;;;1.30;0.57;;;15.00;99.90;;;;;;8362212;28;20292;-70
2022/09/17 10:46:35;;;;;;;1.10;0.77;;;14.60;1.00;;;;;;8369460;28;20182;-68
2022/09/17 10:50:39;;;;;;;1.33;0.73;;;15.00;1.00;;;;;;8364137;28;20192;-69
2022/09/17 10:55:08;;;;;;;2.97;0.83;;;15.30;99.90;;;;;;8369398;28;20235;-69
2022/09/17 10:59:18;;;;;;;3.63;1.17;;;15.40;99.90;;;;;;8370468;28;20190;-68
2022/09/17 11:03:36;;;;;;;1.63;1.10;;;15.30;99.90;;;;;;8367680;28;20271;-69
2022/09/17 11:08:05;;;;;;;3.13;1.00;;;15.30;1.00;;;;;;8368571;28;20177;-69
2022/09/17 11:12:06;;;;;;;2.93;1.17;;;15.60;99.90;;;;;;8365421;28;20244;-68
2022/09/17 11:16:28;;;;;;;3.50;1.03;;;16.30;99.90;;;;;;8369033;28;20235;-69
2022/09/17 11:20:55;;;;;;;4.07;1.10;;;16.30;99.90;;;;;;8368436;28;20503;-69
2022/09/17 11:25:08;;;;;;;6.07;1.07;;;15.80;99.90;;;;;;8371531;28;20244;-68
2022/09/17 11:29:35;;;;;;;2.33;1.10;;;15.20;99.90;;;;;;8372000;28;20204;-68
2022/09/17 11:33:46;;;;;;;2.73;1.30;;;14.30;1.00;;;;;;8367052;28;20192;-68
2022/09/17 11:38:08;;;;;;;3.87;1.47;;;14.20;99.90;;;;;;8370064;28;20216;-68
2022/09/17 11:42:16;;;;;;;2.67;1.10;;;14.60;1.00;;;;;;8369029;28;20201;-68
2022/09/17 11:46:22;;;;;;;7.10;1.10;;;15.30;79.90;;;;;;8368992;28;20182;-68
2022/09/17 11:50:51;;;;;;;4.70;1.50;;;16.00;99.90;;;;;;8373398;28;20182;-69
2022/09/17 11:55:08;;;;;;;3.47;1.23;;;16.30;99.90;;;;;;8364533;28;20185;-68
2022/09/17 11:59:28;;;;;;;3.07;1.57;;;16.20;99.90;;;;;;8365432;28;20190;-69
2022/09/17 12:03:39;;;;;;;2.50;1.13;;;16.10;99.90;;;;;;8372385;28;20202;-69
2022/09/17 12:07:58;;;;;;;2.97;1.30;;;15.80;99.90;;;;;;8372037;28;20180;-68
2022/09/17 12:12:17;;;;;;;3.93;1.10;;;14.90;99.90;;;;;;8364814;28;20198;-68
2022/09/17 12:16:42;;;;;;;4.37;1.53;;;14.60;1.00;;;;;;8366373;28;20197;-68
2022/09/17 12:20:48;;;;;;;3.47;1.00;;;14.70;1.00;;;;;;8379636;28;20193;-68
2022/09/17 12:24:50;;;;;;;4.70;0.80;;;14.70;99.90;;;;;;8363125;28;20215;-68
2022/09/17 12:34:31;;;;;;;3.20;1.13;;;15.00;99.90;;;;;;8364818;28;20263;-67
2022/09/17 12:38:49;;;;;;;3.37;1.00;;;14.40;99.90;;;;;;8364309;28;20208;-68
2022/09/17 12:42:58;;;;;;;3.53;0.93;;;14.20;1.00;;;;;;8370207;28;20213;-68
2022/09/17 12:47:39;;;;;;;4.30;0.90;;;14.30;1.00;;;;;;8369120;28;20182;-69
2022/09/17 12:51:43;;;;;;;2.73;1.20;;;14.50;1.00;;;;;;8364880;28;20184;-68
2022/09/17 12:55:44;;;;;;;3.60;1.03;;;14.80;99.90;;;;;;8368395;28;20194;-68
2022/09/17 12:59:57;;;;;;;3.57;1.10;;;15.00;1.00;;;;;;8363498;28;20184;-68
2022/09/17 13:04:21;;;;;;;5.17;1.00;;;15.20;99.90;;;;;;8362181;28;20215;-68
2022/09/17 13:08:46;;;;;;;3.70;0.90;;;15.20;99.90;;;;;;8361045;28;20220;-68
2022/09/17 13:13:12;;;;;;;3.73;0.93;;;15.00;99.90;;;;;;8357687;28;20263;-68
2022/09/17 13:17:33;;;;;;;1.73;0.83;;;14.80;99.90;;;;;;8369140;28;20252;-69
2022/09/17 13:22:11;;;;;;;3.70;1.00;;;14.20;99.90;;;;;;8357313;28;20332;-68
2022/09/17 13:26:17;;;;;;;2.97;0.63;;;13.90;99.90;;;;;;8366541;28;20189;-68
2022/09/17 13:30:20;;;;;;;2.60;0.90;;;13.80;99.90;;;;;;8364801;28;20182;-68
2022/09/17 13:34:31;;;;;;;2.97;0.70;;;14.00;99.90;;;;;;8359664;28;20280;-68
2022/09/17 13:38:40;;;;;;;4.30;0.90;;;14.30;99.90;;;;;;8362650;28;20439;-68
2022/09/17 13:42:48;;;;;;;4.40;0.60;;;14.50;99.90;;;;;;8369395;28;20210;-69
2022/09/17 13:46:51;;;;;;;3.43;0.90;;;14.10;99.90;;;;;;8368167;28;20209;-68
2022/09/17 13:50:53;;;;;;;2.77;0.87;;;14.20;99.90;;;;;;8357142;28;20185;-69
2022/09/17 13:54:55;;;;;;;1.80;0.60;;;14.40;99.90;;;;;;8365175;28;20512;-69
2022/09/17 13:59:06;;;;;;;2.47;1.07;;;14.50;99.90;;;;;;8359741;28;20181;-68
2022/09/17 14:03:26;;;;;;;2.50;0.60;;;14.70;99.90;;;;;;8368755;28;20286;-68
2022/09/17 14:07:32;;;;;;;2.00;0.80;;;14.90;99.90;;;;;;8363876;28;20225;-68
2022/09/17 14:11:33;;;;;;;2.07;0.60;;;15.10;76.00;;;;;;8373494;28;20615;-70
2022/09/17 14:15:39;;;;;;;0.97;0.50;;;15.30;99.90;;;;;;8370654;28;20199;-69
2022/09/17 14:19:48;;;;;;;2.80;0.70;;;15.50;51.60;;;;;;8370477;28;20208;-68
2022/09/17 14:23:57;;;;;;;2.47;0.60;;;15.30;35.70;;;;;;8368273;28;20213;-69
2022/09/17 14:28:03;;;;;;;2.37;0.60;;;14.90;96.40;;;;;;8366239;28;20184;-68
2022/09/17 14:32:07;;;;;;;1.70;0.37;;;14.20;99.90;;;;;;8367075;28;20186;-69
2022/09/17 14:36:13;;;;;;;1.00;0.30;;;13.90;99.90;;;;;;8366789;28;20193;-68
2022/09/17 14:40:18;;;;;;;0.80;0.40;;;13.70;99.90;;;;;;8369489;28;20189;-69
2022/09/17 14:44:21;;;;;;;1.40;0.50;;;13.50;99.90;;;;;;8365073;28;20287;-69
2022/09/17 14:48:43;;;;;;;2.03;0.50;;;13.30;99.90;;;;;;8384312;28;20192;-67
2022/09/17 14:52:50;;;;;;;4.10;0.50;;;12.90;99.90;;;;;;8375726;28;20229;-67
2022/09/17 14:57:26;;;;;;;2.77;0.80;;;12.30;1.00;;;;;;8366476;28;20182;-66
2022/09/17 15:01:29;;;;;;;2.87;0.77;;;11.90;99.90;;;;;;8363297;28;20192;-67
2022/09/17 15:05:36;;;;;;;2.10;0.70;;;11.70;99.90;;;;;;8367089;28;20678;-66
2022/09/17 15:09:37;;;;;;;2.17;0.70;;;11.60;1.00;;;;;;8367438;28;20177;-66
2022/09/17 15:13:50;;;;;;;2.77;0.93;;;11.80;63.40;;;;;;8366669;28;20280;-67
2022/09/17 15:17:57;;;;;;;4.20;1.17;;;12.00;99.90;;;;;;8366041;28;20944;-67
2022/09/17 15:22:02;;;;;;;3.10;1.13;;;12.10;1.00;;;;;;8366934;28;20215;-68
2022/09/17 15:26:04;;;;;;;1.27;0.40;;;12.20;99.90;;;;;;8363726;28;20185;-67
2022/09/17 15:30:13;;;;;;;2.20;0.53;;;12.30;99.90;;;;;;8368860;28;20247;-66
2022/09/17 15:34:14;;;;;;;2.53;0.80;;;12.20;99.90;;;;;;8374491;28;20193;-67
2022/09/17 15:38:21;;;;;;;2.93;0.90;;;12.30;99.90;;;;;;8366921;28;20283;-67
2022/09/17 15:42:29;;;;;;;2.67;0.73;;;12.40;99.90;;;;;;8372029;28;20208;-68
2022/09/17 15:46:31;;;;;;;2.67;0.70;;;12.60;99.90;;;;;;8367760;28;20190;-68
2022/09/17 15:50:34;;;;;;;2.73;0.67;;;12.50;39.40;;;;;;8368896;28;20193;-67
2022/09/17 15:54:36;;;;;;;6.40;1.00;;;12.20;99.90;;;;;;8365886;28;20185;-67
2022/09/17 15:58:40;;;;;;;2.60;0.80;;;12.10;1.00;;;;;;8366751;28;20193;-67
2022/09/17 16:02:41;;;;;;;1.63;0.97;;;12.10;1.00;;;;;;8369336;28;20209;-67
2022/09/17 16:06:57;;;;;;;4.47;1.27;;;12.10;99.90;;;;;;8366732;28;20189;-68
2022/09/17 16:10:58;;;;;;;3.37;0.80;;;12.00;1.00;;;;;;8365828;28;20186;-67
2022/09/17 16:15:00;;;;;;;3.43;0.90;;;11.90;1.00;;;;;;8365102;28;20252;-69
2022/09/17 16:19:02;;;;;;;5.57;0.80;;;11.80;1.00;;;;;;8365888;28;20255;-66
2022/09/17 16:23:03;;;;;;;3.20;0.87;;;11.70;18.80;;;;;;8364098;28;20235;-66
2022/09/17 16:27:05;;;;;;;4.53;0.80;;;11.70;88.90;;;;;;8365171;28;20423;-67
2022/09/17 16:31:06;;;;;;;2.90;0.90;;;11.50;99.90;;;;;;8364565;28;20164;-68
2022/09/17 16:35:12;;;;;;;2.03;0.77;;;11.30;99.90;;;;;;8365418;28;20203;-67
2022/09/17 16:39:12;;;;;;;2.93;0.80;;;11.10;1.00;;;;;;8376337;28;20239;-67
2022/09/17 16:43:14;;;;;;;3.23;0.90;;;10.90;99.90;;;;;;8367529;28;20661;-67
2022/09/17 16:47:15;;;;;;;2.60;0.83;;;10.70;1.00;;;;;;8366522;28;20195;-67
2022/09/17 16:51:16;;;;;;;3.50;1.10;;;10.60;1.00;;;;;;8361704;28;20188;-69
2022/09/17 16:55:17;;;;;;;4.20;0.80;;;10.40;1.00;;;;;;8369025;28;20202;-67
2022/09/17 16:59:18;;;;;;;3.07;1.20;;;10.30;6.90;;;;;;8365049;28;20254;-68
2022/09/17 17:03:19;;;;;;;3.00;1.30;;;10.10;99.90;;;;;;8363729;28;20219;-67
2022/09/17 17:07:20;;;;;;;1.90;0.93;;;10.00;1.00;;;;;;8364537;28;20219;-67
2022/09/17 17:11:21;;;;;;;4.03;1.50;;;9.80;99.90;;;;;;8363003;28;20230;-67
2022/09/17 17:15:22;;;;;;;1.63;0.80;;;9.80;99.90;;;;;;8361727;28;20207;-67
2022/09/17 17:19:24;;;;;;;2.23;1.10;;;9.70;1.00;;;;;;8363522;28;20202;-66
2022/09/17 17:23:24;;;;;;;3.87;1.30;;;9.60;1.00;;;;;;8363913;28;20465;-67
2022/09/17 17:27:25;;;;;;;2.67;1.47;;;9.40;99.90;;;;;;8367655;28;20184;-66
2022/09/17 17:31:27;;;;;;;4.10;1.60;;;9.40;99.90;;;;;;8360101;28;20303;-67
2022/09/17 17:35:28;;;;;;;4.40;1.57;;;9.30;99.90;;;;;;8369321;28;20213;-67
2022/09/17 17:39:29;;;;;;;3.53;1.40;;;9.30;99.90;;;;;;8372807;28;20182;-67
2022/09/17 17:43:30;;;;;;;1.77;1.30;;;9.20;99.90;;;;;;8371244;28;20205;-67
2022/09/17 17:47:31;;;;;;;3.50;1.60;;;9.10;99.90;;;;;;8370348;28;20177;-67
2022/09/17 17:51:33;;;;;;;3.50;1.93;;;9.10;99.90;;;;;;8377341;28;20189;-68
2022/09/17 17:55:34;;;;;;;4.67;1.97;;;9.00;99.90;;;;;;8368512;28;20281;-67
2022/09/17 17:59:35;;;;;;;5.03;2.20;;;9.00;99.90;;;;;;8380894;28;20192;-67
2022/09/17 18:03:36;;;;;;;6.27;2.90;;;9.00;99.90;;;;;;8375164;28;20236;-66
2022/09/17 18:07:37;;;;;;;5.33;2.20;;;9.00;99.90;;;;;;8368286;28;20189;-67
2022/09/17 18:11:38;;;;;;;4.33;2.17;;;8.90;99.90;;;;;;8367477;28;20297;-67
2022/09/17 18:15:39;;;;;;;5.03;2.43;;;8.90;99.90;;;;;;8368101;28;20183;-68
2022/09/17 18:19:40;;;;;;;6.53;3.03;;;8.90;99.90;;;;;;8370676;28;20205;-67
2022/09/17 18:23:41;;;;;;;7.20;2.93;;;8.80;99.90;;;;;;8364275;28;20202;-67
2022/09/17 18:27:42;;;;;;;6.17;3.40;;;8.80;99.90;;;;;;8368678;28;20178;-67
2022/09/17 18:31:43;;;;;;;5.00;2.83;;;8.80;99.90;;;;;;8368480;28;20324;-67
2022/09/17 18:35:46;;;;;;;7.53;2.67;;;8.80;99.90;;;;;;8372540;28;20192;-67
2022/09/17 18:39:48;;;;;;;5.00;2.03;;;8.70;99.90;;;;;;8366818;28;20189;-67
2022/09/17 18:43:49;;;;;;;8.30;3.03;;;8.70;99.90;;;;;;8366714;28;20219;-67
2022/09/17 18:47:51;;;;;;;8.50;3.20;;;8.70;99.90;;;;;;8366395;28;20190;-68
2022/09/17 18:51:52;;;;;;;7.77;2.63;;;8.70;99.90;;;;;;8366336;28;20657;-67
2022/09/17 18:55:56;;;;;;;6.13;3.10;;;8.60;99.90;;;;;;8369694;28;20185;-66
2022/09/17 18:59:58;;;;;;;5.77;2.80;;;8.60;99.90;;;;;;8370131;28;20218;-66
2022/09/17 19:03:59;;;;;;;6.50;2.83;;;8.60;99.90;;;;;;8367107;28;20268;-67
2022/09/17 19:08:00;;;;;;;4.57;2.50;;;8.60;99.90;;;;;;8369032;28;20186;-67
2022/09/17 19:12:02;;;;;;;6.23;3.03;;;8.60;99.90;;;;;;8366539;28;20538;-66
2022/09/17 19:16:03;;;;;;;11.40;4.17;;;8.60;99.90;;;;;;8370446;28;20192;-67
2022/09/17 19:20:05;;;;;;;6.70;3.20;;;8.60;99.90;;;;;;8367546;28;20280;-67
2022/09/17 19:24:06;;;;;;;6.50;3.57;;;8.60;99.90;;;;;;8368072;28;20213;-67
2022/09/17 19:28:07;;;;;;;8.43;3.37;;;8.60;99.90;;;;;;8367109;28;20182;-66
2022/09/17 19:32:09;;;;;;;10.30;3.67;;;8.60;99.90;;;;;;8367405;28;20189;-69
2022/09/17 19:36:15;;;;;;;8.23;3.93;;;8.50;99.90;;;;;;8363368;28;20272;-67
2022/09/17 19:40:17;;;;;;;6.33;3.50;;;8.50;99.90;;;;;;8368021;28;20265;-66
2022/09/17 19:44:18;;;;;;;7.50;3.60;;;8.40;99.90;;;;;;8367985;28;20313;-67
2022/09/17 19:48:19;;;;;;;7.57;3.27;;;8.40;99.90;;;;;;8364801;28;20181;-66
2022/09/17 19:52:20;;;;;;;6.93;3.00;;;8.40;99.90;;;;;;8366450;28;20235;-66
2022/09/17 19:56:24;;;;;;;7.87;2.90;;;8.30;99.90;;;;;;8363973;28;20193;-66
2022/09/17 20:00:25;;;;;;;8.53;2.60;;;8.30;99.90;;;;;;8366997;28;20290;-69
2022/09/17 20:04:26;;;;;;;8.40;2.60;;;8.20;99.90;;;;;;8359596;28;20208;-67
2022/09/17 20:08:28;;;;;;;5.60;2.47;;;8.10;99.90;;;;;;8366941;28;20255;-68
2022/09/17 20:12:29;;;;;;;4.47;2.03;;;8.00;99.90;;;;;;8364924;28;20266;-67
2022/09/17 20:16:30;;;;;;;5.17;2.40;;;8.00;99.90;;;;;;8371360;28;20239;-67
2022/09/17 20:20:31;;;;;;;8.20;2.50;;;8.00;99.90;;;;;;8366479;28;20225;-67
2022/09/17 20:24:32;;;;;;;7.30;2.47;;;8.00;99.90;;;;;;8365463;28;20217;-68
2022/09/17 20:28:33;;;;;;;12.80;2.73;;;8.00;99.90;;;;;;8365951;28;20188;-68
2022/09/17 20:32:34;;;;;;;7.27;2.20;;;7.90;99.90;;;;;;8368632;28;20185;-68
2022/09/17 20:36:45;;;;;;;3.57;2.07;;;7.90;99.90;;;;;;8365580;28;20275;-68
2022/09/17 20:40:46;;;;;;;5.50;2.30;;;7.80;99.90;;;;;;8361264;28;20189;-68
2022/09/17 20:44:47;;;;;;;7.77;2.03;;;7.80;99.90;;;;;;8361262;28;20217;-69
2022/09/17 20:48:52;;;;;;;8.53;2.50;;;7.80;99.90;;;;;;8365985;28;20193;-67
2022/09/17 20:52:53;;;;;;;7.50;2.50;;;7.90;99.90;;;;;;8363608;28;20213;-68
2022/09/17 20:56:54;;;;;;;9.37;2.33;;;8.00;99.90;;;;;;8362655;28;20181;-68
2022/09/17 21:01:03;;;;;;;5.10;2.27;;;8.10;99.90;;;;;;8361270;28;20189;-67
2022/09/17 21:05:04;;;;;;;7.67;2.23;;;8.20;99.90;;;;;;8364683;28;20267;-68
2022/09/17 21:09:09;;;;;;;6.33;1.77;;;8.30;99.90;;;;;;8365437;28;20271;-68
2022/09/17 21:13:09;;;;;;;7.10;2.13;;;8.50;99.90;;;;;;8361577;28;20201;-68
2022/09/17 21:17:11;;;;;;;3.33;1.70;;;8.60;99.90;;;;;;8362881;28;20272;-68
2022/09/17 21:21:16;;;;;;;5.03;1.60;;;8.60;99.90;;;;;;8363424;28;20464;-69
2022/09/17 21:25:17;;;;;;;4.17;1.47;;;8.60;99.90;;;;;;8362771;28;20262;-68
2022/09/17 21:29:18;;;;;;;6.53;1.80;;;8.60;99.90;;;;;;8365969;28;20191;-68
2022/09/17 21:33:21;;;;;;;4.50;1.53;;;8.60;99.90;;;;;;8363678;28;20192;-68
2022/09/17 21:37:23;;;;;;;4.10;1.67;;;8.60;99.90;;;;;;8363323;28;20185;-68